Time;durP1;ratioP1;P1;durP2;ratioP2;P2;SDS_P1;SDS_P2;PMS_P1;PMS_P2;Temp;Humidity;BMP_temperature;BMP_pressure;BME280_temperature;BME280_humidity;BME280_pressure;Samples;Min_cycle;Max_cycle;Signal;HPM_P1;HPM_P2
2021/12/29 00:01:47;;;;;;;34.25;16.55;;;;;;;5.95;86.64;98634.22;8557906;33;21073;-76
2021/12/29 00:06:51;;;;;;;32.20;16.00;;;;;;;5.97;86.77;98642.09;8556174;33;20495;-78
2021/12/29 00:11:54;;;;;;;33.30;17.55;;;;;;;5.99;86.86;98650.81;8556802;33;20196;-78
2021/12/29 00:16:59;;;;;;;34.20;16.80;;;;;;;6.04;87.11;98643.25;8552483;33;20496;-79
2021/12/29 00:22:04;;;;;;;39.08;16.63;;;;;;;6.06;87.02;98658.13;8548326;33;20463;-78
2021/12/29 00:27:07;;;;;;;33.72;18.15;;;;;;;6.02;87.20;98653.19;8555930;33;21711;-78
2021/12/29 00:32:11;;;;;;;38.42;18.02;;;;;;;5.96;87.13;98662.56;8564199;33;20263;-78
2021/12/29 00:37:33;;;;;;;39.83;17.83;;;;;;;5.86;87.93;98672.38;8572929;33;21095;-79
2021/12/29 00:42:55;;;;;;;37.65;18.77;;;;;;;5.78;88.55;98680.19;8574145;33;20132;-77
2021/12/29 00:48:36;;;;;;;33.70;17.88;;;;;;;5.78;88.77;98686.34;8553842;33;20209;-77
2021/12/29 00:53:42;;;;;;;32.03;15.75;;;;;;;5.64;89.79;98692.06;8573653;33;20923;-80
2021/12/29 00:58:46;;;;;;;34.03;16.98;;;;;;;5.62;89.94;98694.00;8572251;33;20151;-79
2021/12/29 01:03:50;;;;;;;33.65;16.40;;;;;;;5.72;90.17;98697.56;8572976;33;21783;-79
2021/12/29 01:08:53;;;;;;;30.83;15.65;;;;;;;5.79;90.00;98708.50;8562849;33;20467;-78
2021/12/29 01:13:56;;;;;;;32.55;16.98;;;;;;;5.79;89.92;98712.03;8563134;33;20311;-78
2021/12/29 01:19:01;;;;;;;24.75;14.00;;;;;;;5.89;90.06;98726.22;8587876;33;20444;-76
2021/12/29 01:24:07;;;;;;;31.35;15.35;;;;;;;5.84;90.50;98751.59;8565078;33;20408;-79
2021/12/29 01:29:11;;;;;;;29.38;14.55;;;;;;;5.93;90.09;98748.97;8590494;33;21057;-79
2021/12/29 01:34:17;;;;;;;27.67;15.48;;;;;;;5.92;90.39;98760.63;8564246;33;20484;-79
2021/12/29 01:39:21;;;;;;;24.20;12.40;;;;;;;5.94;90.23;98768.47;8558718;33;20148;-78
2021/12/29 01:44:27;;;;;;;23.98;12.60;;;;;;;6.01;90.51;98776.78;8553248;33;20148;-79
2021/12/29 01:49:32;;;;;;;18.38;10.57;;;;;;;6.05;90.79;98791.53;8553555;33;20452;-79
2021/12/29 01:54:35;;;;;;;19.38;9.75;;;;;;;5.70;92.30;98790.09;8553067;33;20148;-79
2021/12/29 01:59:39;;;;;;;14.05;8.32;;;;;;;5.91;92.40;98809.56;8552398;33;20171;-79
2021/12/29 02:04:45;;;;;;;14.88;9.18;;;;;;;5.97;92.49;98818.84;8557995;33;20193;-79
2021/12/29 02:09:48;;;;;;;11.93;7.35;;;;;;;6.12;92.16;98825.50;8567855;33;20408;-78
2021/12/29 02:14:51;;;;;;;14.13;7.28;;;;;;;5.99;92.95;98835.53;8563484;33;20962;-79
2021/12/29 02:20:00;;;;;;;11.95;6.50;;;;;;;6.18;92.37;98851.63;8551338;33;20405;-79
2021/12/29 02:25:21;;;;;;;11.45;5.97;;;;;;;6.11;92.55;98860.28;8553453;33;20426;-79
2021/12/29 02:30:27;;;;;;;10.65;6.22;;;;;;;6.07;92.62;98859.72;8554060;33;20652;-78
2021/12/29 02:35:31;;;;;;;11.13;5.53;;;;;;;6.12;92.28;98875.31;8565869;33;20148;-79
2021/12/29 02:40:35;;;;;;;10.27;5.40;;;;;;;5.81;93.82;98893.91;8582606;33;20560;-78
2021/12/29 02:45:38;;;;;;;6.90;3.95;;;;;;;5.98;92.58;98899.63;8568331;33;20437;-77
2021/12/29 02:50:44;;;;;;;7.50;3.30;;;;;;;5.74;92.54;98916.75;8565137;33;20185;-76
2021/12/29 02:55:47;;;;;;;8.32;3.60;;;;;;;5.64;93.02;98919.31;8557274;33;20422;-80
2021/12/29 03:00:51;;;;;;;8.25;3.47;;;;;;;6.04;91.47;98920.44;8556179;33;20201;-77
2021/12/29 03:05:56;;;;;;;8.30;3.67;;;;;;;5.87;93.22;98924.53;8568914;33;20683;-77
2021/12/29 03:10:59;;;;;;;5.22;3.10;;;;;;;5.68;93.77;98938.56;8559865;33;20352;-79
2021/12/29 03:16:02;;;;;;;8.52;3.60;;;;;;;5.99;93.14;98951.97;8553335;33;20261;-78
2021/12/29 03:21:07;;;;;;;5.68;3.17;;;;;;;5.62;93.39;98960.38;8551984;33;20521;-80
2021/12/29 03:26:11;;;;;;;5.18;3.22;;;;;;;5.81;93.00;98951.69;8552652;33;22293;-78
2021/12/29 03:31:15;;;;;;;6.15;2.97;;;;;;;5.91;93.20;98968.63;8552473;33;20435;-78
2021/12/29 03:36:21;;;;;;;7.53;3.53;;;;;;;5.94;92.19;98977.19;8552667;33;20140;-79
2021/12/29 03:41:25;;;;;;;6.43;3.30;;;;;;;5.96;92.48;98977.06;8565716;33;20194;-80
2021/12/29 03:46:28;;;;;;;5.78;3.50;;;;;;;5.88;92.56;98988.38;8567921;33;20160;-80
2021/12/29 03:51:33;;;;;;;4.85;2.70;;;;;;;5.97;92.52;98996.56;8557302;33;20526;-80
2021/12/29 03:56:36;;;;;;;5.47;2.85;;;;;;;5.89;92.60;98991.88;8565848;33;20729;-80
2021/12/29 04:01:39;;;;;;;2.90;2.03;;;;;;;5.81;93.29;99011.16;8553421;33;20156;-77
2021/12/29 04:06:43;;;;;;;4.13;2.60;;;;;;;5.97;92.57;99020.56;8548342;33;20188;-77
2021/12/29 04:11:50;;;;;;;6.05;3.10;;;;;;;6.18;91.81;99034.75;8545316;33;20441;-80
2021/12/29 04:16:56;;;;;;;7.82;3.20;;;;;;;6.04;92.23;99048.41;8543266;33;20290;-78
2021/12/29 04:22:01;;;;;;;6.70;3.63;;;;;;;6.13;91.20;99061.78;8544316;33;20403;-78
2021/12/29 04:27:06;;;;;;;7.50;3.72;;;;;;;6.03;92.19;99050.19;8549079;33;20183;-80
2021/12/29 04:32:09;;;;;;;9.70;4.20;;;;;;;5.90;92.54;99062.88;8556437;33;20563;-79
2021/12/29 04:37:14;;;;;;;8.23;4.25;;;;;;;6.03;93.01;99076.00;8556911;33;20505;-77
2021/12/29 04:42:17;;;;;;;8.02;4.07;;;;;;;6.19;92.02;99071.09;8576742;33;20168;-80
2021/12/29 04:47:27;;;;;;;6.70;3.72;;;;;;;6.01;92.96;99078.81;8555950;33;20476;-79
2021/12/29 04:52:32;;;;;;;8.65;3.72;;;;;;;5.99;93.12;99095.91;8555838;33;20176;-80
2021/12/29 04:57:35;;;;;;;6.60;3.40;;;;;;;6.07;93.13;99106.78;8558050;33;20225;-78
2021/12/29 05:02:38;;;;;;;8.80;3.55;;;;;;;6.17;92.68;99110.38;8562174;33;21067;-78
2021/12/29 05:13:04;;;;;;;5.80;3.67;;;;;;;5.93;93.65;99123.91;8553751;33;20497;-80
2021/12/29 05:18:07;;;;;;;6.78;3.70;;;;;;;6.29;92.56;99121.84;8565414;33;20223;-79
2021/12/29 05:23:12;;;;;;;6.68;3.88;;;;;;;6.23;92.53;99125.88;8550132;33;20500;-77
2021/12/29 05:28:17;;;;;;;5.32;2.88;;;;;;;6.20;93.13;99136.81;8549513;33;20144;-80
2021/12/29 05:33:20;;;;;;;5.72;3.17;;;;;;;6.03;94.61;99134.66;8547071;33;20516;-78
2021/12/29 05:38:25;;;;;;;4.65;2.83;;;;;;;6.16;94.13;99157.53;8549005;33;20553;-79
2021/12/29 05:43:28;;;;;;;6.57;2.78;;;;;;;6.08;94.58;99159.97;8551729;33;20296;-79
2021/12/29 05:48:31;;;;;;;5.28;3.20;;;;;;;6.17;94.79;99167.22;8556840;33;20187;-78
2021/12/29 05:53:35;;;;;;;6.00;3.58;;;;;;;6.02;95.71;99172.97;8552717;33;20510;-77
2021/12/29 05:58:39;;;;;;;6.72;4.20;;;;;;;6.29;94.65;99173.38;8550021;33;20429;-78
2021/12/29 06:03:43;;;;;;;8.48;4.20;;;;;;;6.04;95.23;99176.34;8543521;33;20185;-78
2021/12/29 06:08:48;;;;;;;6.28;3.47;;;;;;;6.27;94.71;99185.13;8544123;33;20541;-78
2021/12/29 06:13:51;;;;;;;6.43;3.97;;;;;;;6.19;94.63;99209.75;8546932;33;20615;-77
2021/12/29 06:18:54;;;;;;;8.95;3.30;;;;;;;6.18;94.30;99216.06;8549282;33;20436;-77
2021/12/29 06:23:59;;;;;;;10.98;5.30;;;;;;;6.30;94.42;99216.88;8550644;33;20497;-78
2021/12/29 06:29:02;;;;;;;9.48;4.40;;;;;;;6.14;95.08;99217.28;8546487;33;20140;-77
2021/12/29 06:34:05;;;;;;;9.73;5.25;;;;;;;6.18;95.16;99240.91;8570114;33;20910;-79
2021/12/29 06:39:09;;;;;;;9.45;5.30;;;;;;;6.23;95.10;99250.38;8548661;33;20578;-78
2021/12/29 06:44:12;;;;;;;11.40;5.72;;;;;;;6.12;94.82;99267.22;8551918;33;27532;-79
2021/12/29 06:49:15;;;;;;;11.48;5.80;;;;;;;6.11;94.65;99266.34;8554577;33;21209;-79
2021/12/29 06:54:20;;;;;;;12.98;5.80;;;;;;;6.10;95.02;99270.00;8551208;33;20511;-79
2021/12/29 06:59:24;;;;;;;13.68;5.88;;;;;;;6.11;95.01;99289.50;8567240;33;20409;-79
2021/12/29 07:04:27;;;;;;;13.45;6.07;;;;;;;6.16;94.67;99295.31;8545607;33;20453;-78
2021/12/29 07:09:31;;;;;;;13.65;6.80;;;;;;;6.10;94.64;99301.16;8545851;33;20590;-79
2021/12/29 07:14:37;;;;;;;13.23;5.80;;;;;;;5.85;94.55;99334.25;8546495;33;20407;-79
2021/12/29 07:19:40;;;;;;;9.55;4.80;;;;;;;5.90;95.26;99332.91;8552030;33;21465;-78
2021/12/29 07:24:45;;;;;;;13.73;6.10;;;;;;;6.16;94.67;99343.31;8555482;33;20412;-79
2021/12/29 07:29:48;;;;;;;10.35;5.47;;;;;;;6.16;93.74;99346.84;8554917;33;20153;-78
2021/12/29 07:34:51;;;;;;;9.35;5.22;;;;;;;6.08;94.18;99359.06;8556570;33;20136;-79
2021/12/29 07:39:55;;;;;;;9.05;5.10;;;;;;;6.07;94.42;99368.91;8552048;33;20264;-78
2021/12/29 07:44:58;;;;;;;12.75;5.97;;;;;;;5.99;94.56;99357.16;8548590;33;20495;-78
2021/12/29 07:50:01;;;;;;;5.57;3.63;;;;;;;5.75;95.97;99375.88;8544035;33;20422;-78
2021/12/29 07:55:26;;;;;;;11.57;4.80;;;;;;;5.71;95.83;99391.25;8501140;33;20458;-77
2021/12/29 08:00:29;;;;;;;11.77;5.68;;;;;;;5.97;95.30;99394.56;8450994;33;20186;-77
2021/12/29 08:05:32;;;;;;;11.57;5.63;;;;;;;6.03;95.10;99391.44;8479495;33;20441;-77
2021/12/29 08:10:37;;;;;;;10.43;6.18;;;;;;;6.03;94.82;99406.56;8500287;33;20476;-78
2021/12/29 08:15:40;;;;;;;12.98;6.80;;;;;;;5.90;95.35;99396.88;8504269;33;20431;-77
2021/12/29 08:20:44;;;;;;;9.02;4.63;;;;;;;5.82;95.44;99406.44;8535535;33;20438;-77
2021/12/29 08:25:48;;;;;;;8.98;5.18;;;;;;;5.86;94.50;99419.38;8537396;33;20149;-79
2021/12/29 08:30:54;;;;;;;11.82;5.35;;;;;;;6.07;94.23;99427.56;8492776;33;20476;-79
2021/12/29 08:35:57;;;;;;;9.25;5.28;;;;;;;6.13;94.02;99439.56;8553047;33;20184;-77
2021/12/29 08:41:03;;;;;;;10.85;5.00;;;;;;;6.30;92.96;99443.56;8527970;33;21079;-79
2021/12/29 08:46:06;;;;;;;8.40;4.63;;;;;;;6.29;92.83;99434.72;8554558;33;21384;-77
2021/12/29 08:51:10;;;;;;;8.68;4.53;;;;;;;6.25;92.66;99440.41;8556057;33;20414;-82
2021/12/29 08:56:19;;;;;;;8.23;4.82;;;;;;;6.25;92.61;99424.41;8556665;33;20455;-79
2021/12/29 09:01:25;;;;;;;10.35;4.95;;;;;;;6.50;92.32;99442.88;8538926;33;20325;-78
2021/12/29 09:06:28;;;;;;;8.38;4.22;;;;;;;6.39;92.61;99435.72;8554299;33;20148;-77
2021/12/29 09:11:33;;;;;;;8.63;3.92;;;;;;;6.24;92.87;99450.25;8551442;33;20411;-78
2021/12/29 09:16:36;;;;;;;9.18;4.20;;;;;;;6.07;93.43;99461.38;8563988;33;20630;-79
2021/12/29 09:21:42;;;;;;;13.88;5.50;;;;;;;6.52;92.28;99450.75;8525574;33;20404;-80
2021/12/29 09:26:47;;;;;;;13.98;5.65;;;;;;;6.33;92.62;99460.19;8496214;33;22021;-80
2021/12/29 09:31:50;;;;;;;9.00;5.05;;;;;;;6.32;93.26;99460.31;8495870;33;20224;-79
2021/12/29 09:36:53;;;;;;;11.18;5.28;;;;;;;6.10;93.74;99469.97;8547334;33;21099;-80
2021/12/29 09:41:58;;;;;;;9.77;5.53;;;;;;;6.39;93.15;99467.72;8553851;33;20408;-80
2021/12/29 09:47:01;;;;;;;13.27;6.22;;;;;;;6.51;92.44;99465.91;8550731;33;20175;-78
2021/12/29 09:52:06;;;;;;;14.77;6.15;;;;;;;6.59;92.08;99484.00;8549489;33;20351;-79
2021/12/29 09:57:11;;;;;;;13.02;5.88;;;;;;;6.59;91.64;99492.84;8549709;33;20860;-80
2021/12/29 10:02:14;;;;;;;12.63;5.93;;;;;;;6.74;91.06;99509.44;8548500;33;20193;-80
2021/12/29 10:07:20;;;;;;;11.38;5.65;;;;;;;6.59;91.59;99505.34;8546778;33;20553;-79
2021/12/29 10:12:27;;;;;;;10.35;5.65;;;;;;;6.70;91.02;99497.34;8547917;33;21227;-79
2021/12/29 10:17:30;;;;;;;15.75;6.75;;;;;;;6.40;91.33;99505.91;8547738;33;20132;-77
2021/12/29 10:22:33;;;;;;;11.35;5.97;;;;;;;6.44;91.32;99510.03;8541577;33;20584;-80
2021/12/29 10:27:39;;;;;;;11.75;6.40;;;;;;;6.85;90.20;99517.44;8543043;33;20475;-80
2021/12/29 10:32:42;;;;;;;16.58;6.50;;;;;;;6.83;89.77;99526.59;8546537;33;20453;-78
2021/12/29 10:37:45;;;;;;;13.75;7.05;;;;;;;6.49;90.68;99515.88;8552880;33;21022;-79
2021/12/29 10:42:56;;;;;;;22.23;8.13;;;;;;;6.88;89.50;99512.88;8549907;33;20573;-79
2021/12/29 10:47:59;;;;;;;14.73;7.20;;;;;;;7.05;89.90;99507.06;8552189;33;20675;-79
2021/12/29 10:53:02;;;;;;;13.82;7.47;;;;;;;7.23;89.47;99502.03;8554099;33;20440;-80
2021/12/29 10:58:10;;;;;;;19.13;7.95;;;;;;;7.23;88.33;99518.06;8562756;33;20452;-79
2021/12/29 11:03:21;;;;;;;15.40;7.47;;;;;;;7.43;88.67;99513.78;8554742;33;20499;-80
2021/12/29 11:08:24;;;;;;;17.83;7.43;;;;;;;7.39;87.96;99523.03;8553837;33;20457;-80
2021/12/29 11:13:31;;;;;;;17.20;8.27;;;;;;;7.33;88.50;99519.03;8553027;33;20435;-79
2021/12/29 11:18:43;;;;;;;19.83;8.57;;;;;;;7.48;88.21;99519.59;8547586;33;20186;-79
2021/12/29 11:23:46;;;;;;;15.63;8.30;;;;;;;7.09;88.94;99513.00;8547068;33;20457;-80
2021/12/29 11:28:54;;;;;;;14.57;7.50;;;;;;;7.35;88.77;99526.91;8547186;33;20498;-78
2021/12/29 11:33:57;;;;;;;16.08;8.18;;;;;;;7.26;88.95;99524.00;8550230;33;20430;-80
2021/12/29 11:39:04;;;;;;;13.70;7.20;;;;;;;7.16;89.40;99523.06;8550853;33;20925;-79
2021/12/29 11:44:08;;;;;;;15.25;7.43;;;;;;;6.99;90.83;99528.91;8551214;33;20159;-80
2021/12/29 11:49:11;;;;;;;16.00;8.07;;;;;;;7.14;90.96;99522.34;8550278;33;20394;-79
2021/12/29 11:54:29;;;;;;;18.13;8.20;;;;;;;7.14;91.32;99518.81;8551156;33;20678;-78
2021/12/29 11:59:34;;;;;;;19.20;8.45;;;;;;;7.21;91.36;99528.03;8568050;33;20459;-77
2021/12/29 12:04:38;;;;;;;11.90;7.35;;;;;;;7.35;90.98;99530.44;8591766;33;20135;-79
2021/12/29 12:09:48;;;;;;;12.00;6.20;;;;;;;7.30;90.80;99526.44;8560392;33;20552;-79
2021/12/29 12:14:53;;;;;;;12.23;6.65;;;;;;;7.29;91.18;99541.59;8566775;33;20191;-78
2021/12/29 12:20:02;;;;;;;11.25;6.15;;;;;;;7.22;91.49;99546.63;8549173;33;20411;-79
2021/12/29 12:25:08;;;;;;;12.82;6.95;;;;;;;7.03;91.19;99541.88;8573650;33;20558;-79
2021/12/29 12:30:17;;;;;;;10.95;5.93;;;;;;;7.21;91.58;99544.91;8562588;33;20215;-78
2021/12/29 12:35:31;;;;;;;12.15;6.32;;;;;;;7.25;91.44;99550.84;8569777;33;20415;-79
2021/12/29 12:40:36;;;;;;;11.60;6.28;;;;;;;7.02;92.64;99566.03;8551630;33;20220;-78
2021/12/29 12:45:44;;;;;;;13.00;5.90;;;;;;;6.97;93.09;99557.56;8586378;33;20470;-77
2021/12/29 12:50:47;;;;;;;6.70;4.07;;;;;;;6.82;93.00;99563.09;8573505;33;20706;-79
2021/12/29 12:55:54;;;;;;;10.50;6.10;;;;;;;6.99;92.41;99572.50;8578343;33;20159;-77
2021/12/29 13:01:14;;;;;;;10.68;5.90;;;;;;;6.86;92.89;99579.72;8558726;33;20181;-79
2021/12/29 13:06:22;;;;;;;10.57;6.07;;;;;;;6.84;91.85;99587.00;8569353;33;20674;-79
2021/12/29 13:11:25;;;;;;;12.63;6.03;;;;;;;6.73;92.30;99584.31;8560899;33;20584;-79
2021/12/29 13:16:31;;;;;;;9.82;5.72;;;;;;;6.81;92.38;99577.41;8560722;33;20494;-77
2021/12/29 13:21:37;;;;;;;12.93;7.57;;;;;;;6.94;91.55;99572.00;8565371;33;20143;-78
2021/12/29 13:26:42;;;;;;;13.25;7.35;;;;;;;6.87;91.68;99572.56;8512826;33;21639;-79
2021/12/29 13:31:47;;;;;;;14.07;7.82;;;;;;;7.03;91.01;99589.94;8493317;33;20922;-79
2021/12/29 13:36:50;;;;;;;15.30;8.05;;;;;;;6.98;90.78;99588.63;8497241;33;20422;-79
2021/12/29 13:41:53;;;;;;;17.50;8.75;;;;;;;7.09;90.51;99574.41;8497668;33;20441;-80
2021/12/29 13:46:58;;;;;;;15.13;8.43;;;;;;;6.79;90.46;99578.50;8494065;33;22728;-78
2021/12/29 13:52:01;;;;;;;15.35;8.18;;;;;;;6.99;89.57;99576.97;8493269;33;20240;-80
2021/12/29 13:57:04;;;;;;;17.92;8.60;;;;;;;7.04;88.95;99572.94;8493109;33;20147;-79
2021/12/29 14:02:09;;;;;;;20.10;9.02;;;;;;;7.04;88.55;99586.31;8494685;33;20415;-78
2021/12/29 14:07:16;;;;;;;20.60;10.40;;;;;;;7.06;88.41;99587.03;8488910;33;20919;-79
2021/12/29 14:12:22;;;;;;;21.00;10.45;;;;;;;7.01;88.49;99588.38;8485293;33;21217;-80
2021/12/29 14:17:27;;;;;;;18.98;10.93;;;;;;;7.19;87.98;99589.59;8505722;33;20456;-78
2021/12/29 14:22:32;;;;;;;22.98;11.65;;;;;;;7.22;87.83;99592.03;8508510;33;20310;-81
2021/12/29 14:27:37;;;;;;;24.70;11.70;;;;;;;7.23;87.73;99595.53;8504653;33;20188;-80
2021/12/29 14:32:55;;;;;;;26.00;12.70;;;;;;;7.18;88.02;99603.06;8525503;33;20685;-80
2021/12/29 14:38:06;;;;;;;24.65;12.45;;;;;;;7.25;87.77;99577.56;8512898;33;20423;-78
2021/12/29 14:43:11;;;;;;;27.27;13.82;;;;;;;7.27;87.88;99605.03;8500525;33;20429;-80
2021/12/29 14:48:16;;;;;;;27.63;14.45;;;;;;;7.31;88.45;99562.88;8519187;33;20465;-80
2021/12/29 14:53:22;;;;;;;29.58;14.48;;;;;;;7.27;88.72;99565.78;8522401;33;20283;-78
2021/12/29 14:58:28;;;;;;;29.77;16.17;;;;;;;7.23;88.38;99550.13;8522022;33;20431;-79
2021/12/29 15:03:32;;;;;;;30.90;16.63;;;;;;;7.16;88.94;99546.22;8510194;33;20295;-81
2021/12/29 15:08:36;;;;;;;27.30;16.27;;;;;;;7.11;89.22;99545.78;8523996;33;20440;-78
2021/12/29 15:13:40;;;;;;;36.72;17.27;;;;;;;7.05;88.86;99561.31;8545030;33;20144;-80
2021/12/29 15:18:45;;;;;;;39.00;16.85;;;;;;;6.98;88.84;99573.44;8469440;33;20933;-80
2021/12/29 15:23:49;;;;;;;36.25;19.73;;;;;;;6.97;89.38;99585.09;8474714;33;20153;-78
2021/12/29 15:28:56;;;;;;;38.00;19.63;;;;;;;6.98;89.25;99584.13;8484991;33;20686;-79
2021/12/29 15:34:00;;;;;;;38.28;19.30;;;;;;;6.94;89.34;99536.41;8489113;33;20639;-78
2021/12/29 15:39:03;;;;;;;40.47;19.87;;;;;;;6.95;89.29;99549.66;8481229;33;21148;-78
2021/12/29 15:44:07;;;;;;;38.13;19.88;;;;;;;6.94;89.29;99541.75;8482363;33;22039;-78
2021/12/29 15:49:12;;;;;;;38.88;21.20;;;;;;;6.95;88.97;99563.00;8483812;33;20539;-78
2021/12/29 15:54:15;;;;;;;37.90;18.42;;;;;;;6.99;89.23;99560.94;8495393;33;20149;-78
2021/12/29 15:59:18;;;;;;;34.35;18.33;;;;;;;6.99;88.88;99563.59;8505929;33;20644;-78
2021/12/29 16:04:22;;;;;;;37.15;19.05;;;;;;;6.98;88.93;99568.09;8495244;33;20194;-79
2021/12/29 16:09:26;;;;;;;34.45;18.60;;;;;;;6.98;89.13;99551.22;8490727;33;20169;-78
2021/12/29 16:14:29;;;;;;;30.80;17.00;;;;;;;6.99;89.08;99551.13;8496726;33;20498;-78
2021/12/29 16:19:33;;;;;;;34.78;18.02;;;;;;;7.01;88.92;99553.66;8504150;33;20656;-78
2021/12/29 16:24:37;;;;;;;34.25;18.02;;;;;;;6.99;89.25;99551.13;8513331;33;20431;-79
2021/12/29 16:29:40;;;;;;;34.30;17.45;;;;;;;6.95;88.89;99538.13;8512324;33;20188;-78
2021/12/29 16:34:47;;;;;;;30.35;16.52;;;;;;;6.77;89.07;99519.03;8513119;33;20153;-78
2021/12/29 16:39:51;;;;;;;27.67;14.57;;;;;;;6.67;89.52;99494.06;8523973;33;20433;-78
2021/12/29 16:44:56;;;;;;;25.80;13.95;;;;;;;6.58;89.73;99479.59;8564177;33;20419;-77
2021/12/29 16:50:02;;;;;;;26.35;13.98;;;;;;;6.51;90.16;99476.59;8570819;33;20415;-79
2021/12/29 16:55:09;;;;;;;33.72;15.35;;;;;;;6.45;89.72;99486.91;8571166;33;20561;-78
2021/12/29 17:00:15;;;;;;;32.03;14.07;;;;;;;6.48;89.48;99462.63;8556295;33;20709;-79
2021/12/29 17:05:20;;;;;;;24.98;13.55;;;;;;;6.44;89.47;99447.81;8551178;33;20209;-78
2021/12/29 17:10:23;;;;;;;24.75;13.32;;;;;;;6.45;89.29;99421.03;8552669;33;20913;-79
2021/12/29 17:15:27;;;;;;;24.38;12.68;;;;;;;6.51;89.49;99433.88;8543642;33;20408;-79
2021/12/29 17:20:32;;;;;;;22.67;12.45;;;;;;;6.48;89.56;99443.97;8570455;33;20129;-79
2021/12/29 17:25:35;;;;;;;21.52;11.57;;;;;;;6.43;89.45;99479.00;8542511;33;20572;-77
2021/12/29 17:30:39;;;;;;;19.70;10.75;;;;;;;6.30;89.82;99481.75;8574786;33;20652;-79
2021/12/29 17:35:43;;;;;;;19.52;11.38;;;;;;;6.44;89.97;99474.50;8513023;33;20165;-78
2021/12/29 17:40:46;;;;;;;20.65;10.98;;;;;;;6.38;89.51;99476.69;8463334;33;20456;-79
2021/12/29 17:45:49;;;;;;;17.65;10.30;;;;;;;6.38;89.52;99490.03;8475512;33;20558;-78
2021/12/29 17:50:55;;;;;;;17.52;9.80;;;;;;;6.42;89.87;99495.09;8498142;33;20204;-79
2021/12/29 17:55:58;;;;;;;18.08;10.70;;;;;;;6.50;89.92;99466.00;8475867;33;20197;-78
2021/12/29 18:01:01;;;;;;;17.40;10.77;;;;;;;6.43;89.90;99467.47;8455933;33;20199;-79
2021/12/29 18:06:07;;;;;;;17.08;9.88;;;;;;;6.38;90.02;99463.34;8461261;33;21041;-78
2021/12/29 18:11:11;;;;;;;18.05;9.05;;;;;;;6.35;90.08;99466.25;8445703;33;20150;-78
2021/12/29 18:16:15;;;;;;;13.70;8.55;;;;;;;6.37;90.35;99432.31;8456256;33;20197;-78
2021/12/29 18:21:20;;;;;;;15.10;8.98;;;;;;;6.42;90.08;99429.28;8444734;33;20145;-78
2021/12/29 18:26:23;;;;;;;13.70;8.32;;;;;;;6.33;90.27;99425.50;8461692;33;20480;-77
2021/12/29 18:31:26;;;;;;;16.45;9.77;;;;;;;6.46;90.75;99435.22;8464416;33;20161;-78
2021/12/29 18:36:32;;;;;;;13.57;8.98;;;;;;;6.51;90.58;99427.72;8492730;33;20661;-78
2021/12/29 18:41:36;;;;;;;18.92;9.70;;;;;;;6.55;90.75;99432.66;8495236;33;20623;-78
2021/12/29 18:46:39;;;;;;;16.88;9.65;;;;;;;6.51;91.07;99460.56;8505483;33;20244;-78
2021/12/29 18:51:43;;;;;;;14.07;9.02;;;;;;;6.60;91.01;99446.50;8551914;33;20217;-79
2021/12/29 18:56:47;;;;;;;13.38;8.20;;;;;;;6.67;90.90;99432.69;8563713;33;21178;-78
2021/12/29 19:01:50;;;;;;;18.13;11.40;;;;;;;6.67;90.92;99449.53;8563203;33;20184;-78
2021/12/29 19:06:54;;;;;;;13.60;8.05;;;;;;;6.68;90.84;99434.38;8551517;33;20809;-78
2021/12/29 19:11:58;;;;;;;11.77;6.68;;;;;;;6.67;91.45;99427.34;8552829;33;20676;-78
2021/12/29 19:17:01;;;;;;;8.05;5.80;;;;;;;6.72;91.31;99422.47;8554181;33;20325;-77
2021/12/29 19:22:07;;;;;;;7.35;5.07;;;;;;;6.79;91.41;99413.84;8553256;33;20140;-77
2021/12/29 19:27:11;;;;;;;7.10;4.30;;;;;;;6.80;91.50;99418.22;8546122;33;20981;-78
2021/12/29 19:32:14;;;;;;;5.30;4.43;;;;;;;6.83;91.42;99415.31;8549943;33;20200;-79
2021/12/29 19:37:19;;;;;;;5.97;4.35;;;;;;;6.88;91.39;99398.94;8549971;33;20421;-79
2021/12/29 19:42:23;;;;;;;3.90;3.13;;;;;;;6.92;91.16;99399.56;8553724;33;20475;-78
2021/12/29 19:47:26;;;;;;;5.90;3.08;;;;;;;6.95;91.68;99394.81;8596312;33;20131;-78
2021/12/29 19:52:31;;;;;;;3.78;3.10;;;;;;;7.04;91.93;99395.88;8608343;33;20538;-78
2021/12/29 19:57:35;;;;;;;5.00;3.55;;;;;;;7.02;91.75;99417.38;8621477;33;20155;-78
2021/12/29 20:02:39;;;;;;;7.13;3.75;;;;;;;7.05;92.29;99413.59;8624195;33;21131;-79
2021/12/29 20:07:45;;;;;;;5.30;3.47;;;;;;;7.20;92.32;99409.66;8615024;33;20243;-79
2021/12/29 20:12:49;;;;;;;5.15;3.60;;;;;;;7.19;92.88;99425.81;8593881;33;20545;-79
2021/12/29 20:17:52;;;;;;;5.18;3.65;;;;;;;7.17;93.27;99425.94;8612616;33;20197;-79
2021/12/29 20:22:56;;;;;;;6.13;4.10;;;;;;;7.24;93.16;99440.50;8611075;33;20178;-79
2021/12/29 20:27:59;;;;;;;6.25;4.30;;;;;;;7.28;93.13;99425.91;8612134;33;20509;-79
2021/12/29 20:33:03;;;;;;;6.60;4.50;;;;;;;7.45;92.72;99437.00;8612326;33;20446;-79
2021/12/29 20:38:08;;;;;;;4.95;4.13;;;;;;;7.30;93.68;99443.66;8611758;33;20173;-79
2021/12/29 20:43:11;;;;;;;5.18;3.78;;;;;;;7.20;94.46;99448.88;8613494;33;20931;-79
2021/12/29 20:48:14;;;;;;;6.53;4.15;;;;;;;7.38;93.90;99457.22;8622204;33;20192;-80
2021/12/29 20:53:18;;;;;;;3.65;3.05;;;;;;;7.26;94.29;99469.72;8626624;33;20179;-79
2021/12/29 20:58:21;;;;;;;5.60;3.88;;;;;;;7.40;94.68;99479.28;8629643;33;21008;-81
2021/12/29 21:03:25;;;;;;;4.82;4.18;;;;;;;7.41;94.69;99481.84;8601880;33;20442;-80
2021/12/29 21:08:30;;;;;;;6.22;4.40;;;;;;;7.41;94.53;99500.56;8633282;33;20178;-79
2021/12/29 21:13:34;;;;;;;6.43;4.75;;;;;;;7.63;94.17;99513.00;8636303;33;20437;-79
2021/12/29 21:18:37;;;;;;;5.63;3.72;;;;;;;7.48;95.06;99519.59;8633720;33;20435;-77
2021/12/29 21:23:42;;;;;;;8.35;5.88;;;;;;;7.43;95.34;99517.31;8626557;33;20489;-80
2021/12/29 21:28:45;;;;;;;8.82;5.47;;;;;;;7.52;95.50;99525.56;8602941;33;20182;-79
2021/12/29 21:33:51;;;;;;;7.90;4.85;;;;;;;7.50;95.86;99536.34;8627858;33;20298;-78
2021/12/29 21:38:58;;;;;;;8.90;5.80;;;;;;;7.70;95.53;99548.91;8618557;33;20632;-78
2021/12/29 21:44:01;;;;;;;10.20;6.65;;;;;;;7.81;95.60;99571.25;8616060;33;20251;-78
2021/12/29 21:49:04;;;;;;;10.57;5.75;;;;;;;7.73;95.51;99588.78;8625235;33;20169;-77
2021/12/29 21:54:09;;;;;;;13.55;8.70;;;;;;;7.87;95.61;99576.09;8612359;33;20193;-78
2021/12/29 21:59:13;;;;;;;14.07;8.02;;;;;;;8.00;95.49;99608.03;8610788;33;20958;-78
2021/12/29 22:04:16;;;;;;;17.88;9.30;;;;;;;7.89;96.53;99599.06;8586007;33;20294;-79
2021/12/29 22:09:20;;;;;;;17.27;9.82;;;;;;;8.04;96.37;99607.66;8611621;33;20175;-79
2021/12/29 22:14:24;;;;;;;21.23;11.70;;;;;;;8.14;97.69;99615.75;8613639;33;20739;-80
2021/12/29 22:19:29;;;;;;;23.58;12.48;;;;;;;8.47;96.68;99617.47;8622136;33;20461;-79
2021/12/29 22:24:33;;;;;;;20.30;11.27;;;;;;;8.44;96.96;99627.53;8626230;33;20621;-78
2021/12/29 22:29:36;;;;;;;30.70;15.18;;;;;;;8.75;95.57;99632.03;8598489;33;21083;-80
2021/12/29 22:34:39;;;;;;;29.63;15.45;;;;;;;8.75;96.54;99649.91;8588609;33;21076;-78
2021/12/29 22:39:45;;;;;;;33.40;17.25;;;;;;;8.91;96.33;99649.47;8613461;33;20492;-79
2021/12/29 22:44:53;;;;;;;31.52;17.95;;;;;;;9.04;94.81;99664.34;8612780;33;20514;-77
2021/12/29 22:49:57;;;;;;;33.53;16.27;;;;;;;8.82;96.18;99669.84;8609866;33;20408;-78
2021/12/29 22:55:02;;;;;;;28.02;14.23;;;;;;;8.89;96.46;99676.41;8612372;33;20526;-78
2021/12/29 23:00:14;;;;;;;27.67;14.90;;;;;;;9.08;95.50;99678.34;8550229;33;20526;-79
2021/12/29 23:05:18;;;;;;;32.00;16.13;;;;;;;9.23;94.76;99690.41;8516651;33;20428;-78
2021/12/29 23:10:23;;;;;;;31.73;15.82;;;;;;;9.34;94.67;99702.88;8509738;33;20191;-77
2021/12/29 23:15:31;;;;;;;32.33;15.10;;;;;;;9.37;93.87;99699.94;8542819;33;20541;-79
2021/12/29 23:20:37;;;;;;;28.85;14.85;;;;;;;9.34;94.06;99716.28;8524393;33;20415;-79
2021/12/29 23:25:54;;;;;;;30.70;15.10;;;;;;;9.38;94.39;99716.84;8541682;33;20627;-79
2021/12/29 23:30:58;;;;;;;32.50;15.02;;;;;;;9.20;95.12;99730.03;8553614;33;20184;-78
2021/12/29 23:36:05;;;;;;;31.77;14.18;;;;;;;9.51;94.01;99734.41;8584213;33;20164;-78
2021/12/29 23:41:10;;;;;;;32.03;15.15;;;;;;;9.44;94.35;99741.31;8548481;33;21328;-79
2021/12/29 23:46:14;;;;;;;32.00;15.07;;;;;;;9.62;92.54;99757.63;8542942;33;20516;-78
2021/12/29 23:51:18;;;;;;;31.95;14.55;;;;;;;9.59;93.02;99760.56;8545480;33;21015;-78
2021/12/29 23:56:22;;;;;;;29.17;13.93;;;;;;;9.55;92.93;99774.41;8547838;33;20188;-80
